sensor_id;sensor_type;location;lat;lon;timestamp;P1;durP1;ratioP1;P2;durP2;ratioP2
54259;SDS011;40172;53.022;7.012;2022-08-19T00:00:17;9.20;;;7.85;;
54259;SDS011;40172;53.022;7.012;2022-08-19T00:02:43;10.50;;;8.65;;
54259;SDS011;40172;53.022;7.012;2022-08-19T00:05:09;12.18;;;9.25;;
54259;SDS011;40172;53.022;7.012;2022-08-19T00:07:35;10.77;;;9.13;;
54259;SDS011;40172;53.022;7.012;2022-08-19T00:10:03;15.13;;;11.10;;
54259;SDS011;40172;53.022;7.012;2022-08-19T00:12:32;12.70;;;10.48;;
54259;SDS011;40172;53.022;7.012;2022-08-19T00:14:58;13.02;;;10.10;;
54259;SDS011;40172;53.022;7.012;2022-08-19T00:17:25;9.93;;;8.57;;
54259;SDS011;40172;53.022;7.012;2022-08-19T00:19:50;44.88;;;4.53;;
54259;SDS011;40172;53.022;7.012;2022-08-19T00:22:16;28.92;;;4.47;;
54259;SDS011;40172;53.022;7.012;2022-08-19T00:24:43;13.80;;;7.85;;
54259;SDS011;40172;53.022;7.012;2022-08-19T00:27:10;16.08;;;11.20;;
54259;SDS011;40172;53.022;7.012;2022-08-19T00:29:36;9.82;;;7.90;;
54259;SDS011;40172;53.022;7.012;2022-08-19T00:32:02;8.57;;;6.57;;
54259;SDS011;40172;53.022;7.012;2022-08-19T00:34:27;13.82;;;6.93;;
54259;SDS011;40172;53.022;7.012;2022-08-19T00:36:54;10.25;;;7.30;;
54259;SDS011;40172;53.022;7.012;2022-08-19T00:39:20;15.25;;;7.05;;
54259;SDS011;40172;53.022;7.012;2022-08-19T00:41:46;18.67;;;10.63;;
54259;SDS011;40172;53.022;7.012;2022-08-19T00:44:16;13.15;;;9.10;;
54259;SDS011;40172;53.022;7.012;2022-08-19T00:46:43;10.43;;;8.10;;
54259;SDS011;40172;53.022;7.012;2022-08-19T00:49:20;9.48;;;7.22;;
54259;SDS011;40172;53.022;7.012;2022-08-19T00:51:52;9.10;;;6.05;;
54259;SDS011;40172;53.022;7.012;2022-08-19T00:54:22;8.52;;;5.15;;
54259;SDS011;40172;53.022;7.012;2022-08-19T00:56:48;8.00;;;6.47;;
54259;SDS011;40172;53.022;7.012;2022-08-19T00:59:15;6.78;;;4.70;;
54259;SDS011;40172;53.022;7.012;2022-08-19T01:01:43;5.85;;;4.80;;
54259;SDS011;40172;53.022;7.012;2022-08-19T01:04:10;13.82;;;8.15;;
54259;SDS011;40172;53.022;7.012;2022-08-19T01:06:37;9.43;;;6.82;;
54259;SDS011;40172;53.022;7.012;2022-08-19T01:09:05;5.65;;;4.50;;
54259;SDS011;40172;53.022;7.012;2022-08-19T01:11:32;6.70;;;4.13;;
54259;SDS011;40172;53.022;7.012;2022-08-19T01:14:01;4.20;;;3.42;;
54259;SDS011;40172;53.022;7.012;2022-08-19T01:16:28;6.20;;;5.60;;
54259;SDS011;40172;53.022;7.012;2022-08-19T01:18:55;5.70;;;5.10;;
54259;SDS011;40172;53.022;7.012;2022-08-19T01:21:26;23.52;;;6.28;;
54259;SDS011;40172;53.022;7.012;2022-08-19T01:23:59;12.07;;;5.63;;
54259;SDS011;40172;53.022;7.012;2022-08-19T01:26:25;5.55;;;4.25;;
54259;SDS011;40172;53.022;7.012;2022-08-19T01:28:53;5.00;;;4.50;;
54259;SDS011;40172;53.022;7.012;2022-08-19T01:31:22;7.22;;;6.00;;
54259;SDS011;40172;53.022;7.012;2022-08-19T01:33:50;8.55;;;5.10;;
54259;SDS011;40172;53.022;7.012;2022-08-19T01:36:26;3.38;;;2.83;;
54259;SDS011;40172;53.022;7.012;2022-08-19T01:38:55;4.20;;;3.03;;
54259;SDS011;40172;53.022;7.012;2022-08-19T01:41:23;6.82;;;5.07;;
54259;SDS011;40172;53.022;7.012;2022-08-19T01:43:49;74.28;;;7.65;;
54259;SDS011;40172;53.022;7.012;2022-08-19T01:46:16;11.45;;;6.00;;
54259;SDS011;40172;53.022;7.012;2022-08-19T01:48:45;4.43;;;3.47;;
54259;SDS011;40172;53.022;7.012;2022-08-19T01:51:11;4.15;;;3.20;;
54259;SDS011;40172;53.022;7.012;2022-08-19T01:53:37;4.80;;;3.42;;
54259;SDS011;40172;53.022;7.012;2022-08-19T01:56:05;7.15;;;4.75;;
54259;SDS011;40172;53.022;7.012;2022-08-19T01:58:36;10.00;;;5.93;;
54259;SDS011;40172;53.022;7.012;2022-08-19T02:01:06;17.10;;;5.85;;
54259;SDS011;40172;53.022;7.012;2022-08-19T02:03:32;7.22;;;3.40;;
54259;SDS011;40172;53.022;7.012;2022-08-19T02:06:00;6.97;;;5.05;;
54259;SDS011;40172;53.022;7.012;2022-08-19T02:08:30;6.82;;;4.50;;
54259;SDS011;40172;53.022;7.012;2022-08-19T02:10:57;4.57;;;4.10;;
54259;SDS011;40172;53.022;7.012;2022-08-19T02:13:23;4.85;;;4.25;;
54259;SDS011;40172;53.022;7.012;2022-08-19T02:15:49;5.32;;;4.82;;
54259;SDS011;40172;53.022;7.012;2022-08-19T02:18:14;7.35;;;5.38;;
54259;SDS011;40172;53.022;7.012;2022-08-19T02:20:40;7.10;;;5.95;;
54259;SDS011;40172;53.022;7.012;2022-08-19T02:23:07;5.97;;;4.57;;
54259;SDS011;40172;53.022;7.012;2022-08-19T02:25:33;7.70;;;4.57;;
54259;SDS011;40172;53.022;7.012;2022-08-19T02:27:59;5.93;;;4.80;;
54259;SDS011;40172;53.022;7.012;2022-08-19T02:30:24;34.75;;;6.40;;
54259;SDS011;40172;53.022;7.012;2022-08-19T02:32:51;47.63;;;6.25;;
54259;SDS011;40172;53.022;7.012;2022-08-19T02:35:17;7.88;;;5.68;;
54259;SDS011;40172;53.022;7.012;2022-08-19T02:37:43;10.27;;;6.82;;
54259;SDS011;40172;53.022;7.012;2022-08-19T02:40:28;13.43;;;7.30;;
54259;SDS011;40172;53.022;7.012;2022-08-19T02:42:54;9.88;;;6.63;;
54259;SDS011;40172;53.022;7.012;2022-08-19T02:45:20;9.07;;;6.20;;
54259;SDS011;40172;53.022;7.012;2022-08-19T02:47:47;361.55;;;12.05;;
54259;SDS011;40172;53.022;7.012;2022-08-19T02:50:12;21.17;;;11.38;;
54259;SDS011;40172;53.022;7.012;2022-08-19T02:52:38;16.02;;;9.15;;
54259;SDS011;40172;53.022;7.012;2022-08-19T02:55:04;15.30;;;7.68;;
54259;SDS011;40172;53.022;7.012;2022-08-19T02:57:30;17.98;;;8.70;;
54259;SDS011;40172;53.022;7.012;2022-08-19T02:59:56;49.55;;;10.25;;
54259;SDS011;40172;53.022;7.012;2022-08-19T03:02:23;59.25;;;8.85;;
54259;SDS011;40172;53.022;7.012;2022-08-19T03:04:49;104.63;;;5.93;;
54259;SDS011;40172;53.022;7.012;2022-08-19T03:07:16;137.60;;;9.65;;
54259;SDS011;40172;53.022;7.012;2022-08-19T03:09:43;92.65;;;11.00;;
54259;SDS011;40172;53.022;7.012;2022-08-19T03:12:09;52.17;;;8.65;;
54259;SDS011;40172;53.022;7.012;2022-08-19T03:14:35;91.82;;;8.93;;
54259;SDS011;40172;53.022;7.012;2022-08-19T03:17:01;180.60;;;12.88;;
54259;SDS011;40172;53.022;7.012;2022-08-19T03:19:29;196.00;;;13.55;;
54259;SDS011;40172;53.022;7.012;2022-08-19T03:21:56;128.98;;;9.43;;
54259;SDS011;40172;53.022;7.012;2022-08-19T03:24:22;129.63;;;9.93;;
54259;SDS011;40172;53.022;7.012;2022-08-19T03:26:50;191.70;;;9.55;;
54259;SDS011;40172;53.022;7.012;2022-08-19T03:29:20;87.00;;;5.32;;
54259;SDS011;40172;53.022;7.012;2022-08-19T03:31:45;128.13;;;7.05;;
54259;SDS011;40172;53.022;7.012;2022-08-19T03:34:12;48.85;;;9.68;;
54259;SDS011;40172;53.022;7.012;2022-08-19T03:36:39;13.07;;;6.90;;
54259;SDS011;40172;53.022;7.012;2022-08-19T03:39:05;43.38;;;11.45;;
54259;SDS011;40172;53.022;7.012;2022-08-19T03:41:37;26.50;;;8.18;;
54259;SDS011;40172;53.022;7.012;2022-08-19T03:44:04;40.45;;;11.50;;
54259;SDS011;40172;53.022;7.012;2022-08-19T03:46:31;125.22;;;12.45;;
54259;SDS011;40172;53.022;7.012;2022-08-19T03:48:58;75.57;;;8.43;;
54259;SDS011;40172;53.022;7.012;2022-08-19T03:51:27;54.30;;;7.70;;
54259;SDS011;40172;53.022;7.012;2022-08-19T03:53:58;99.70;;;10.45;;
54259;SDS011;40172;53.022;7.012;2022-08-19T03:56:25;93.97;;;10.45;;
54259;SDS011;40172;53.022;7.012;2022-08-19T03:58:53;65.57;;;8.32;;
54259;SDS011;40172;53.022;7.012;2022-08-19T04:01:21;61.13;;;9.55;;
54259;SDS011;40172;53.022;7.012;2022-08-19T04:03:48;64.05;;;10.88;;
54259;SDS011;40172;53.022;7.012;2022-08-19T04:06:22;49.72;;;10.13;;
54259;SDS011;40172;53.022;7.012;2022-08-19T04:08:50;203.40;;;11.25;;
54259;SDS011;40172;53.022;7.012;2022-08-19T04:11:22;84.03;;;7.65;;
54259;SDS011;40172;53.022;7.012;2022-08-19T04:13:49;45.85;;;8.00;;
54259;SDS011;40172;53.022;7.012;2022-08-19T04:16:16;36.20;;;8.40;;
54259;SDS011;40172;53.022;7.012;2022-08-19T04:18:44;19.70;;;6.82;;
54259;SDS011;40172;53.022;7.012;2022-08-19T04:21:14;12.38;;;5.70;;
54259;SDS011;40172;53.022;7.012;2022-08-19T04:23:42;8.98;;;5.50;;
54259;SDS011;40172;53.022;7.012;2022-08-19T04:26:12;7.97;;;4.10;;
54259;SDS011;40172;53.022;7.012;2022-08-19T04:28:43;24.77;;;4.80;;
54259;SDS011;40172;53.022;7.012;2022-08-19T04:31:17;11.77;;;5.28;;
54259;SDS011;40172;53.022;7.012;2022-08-19T04:33:45;52.92;;;5.10;;
54259;SDS011;40172;53.022;7.012;2022-08-19T04:36:17;14.68;;;4.70;;
54259;SDS011;40172;53.022;7.012;2022-08-19T04:38:45;21.33;;;4.63;;
54259;SDS011;40172;53.022;7.012;2022-08-19T04:41:15;42.60;;;6.32;;
54259;SDS011;40172;53.022;7.012;2022-08-19T04:47:41;28.10;;;9.77;;
54259;SDS011;40172;53.022;7.012;2022-08-19T04:50:09;44.33;;;8.73;;
54259;SDS011;40172;53.022;7.012;2022-08-19T04:52:36;88.80;;;9.02;;
54259;SDS011;40172;53.022;7.012;2022-08-19T04:55:02;31.85;;;8.75;;
54259;SDS011;40172;53.022;7.012;2022-08-19T04:57:31;76.43;;;5.90;;
54259;SDS011;40172;53.022;7.012;2022-08-19T04:59:57;30.02;;;5.30;;
54259;SDS011;40172;53.022;7.012;2022-08-19T05:02:22;15.65;;;5.60;;
54259;SDS011;40172;53.022;7.012;2022-08-19T05:04:49;19.77;;;7.53;;
54259;SDS011;40172;53.022;7.012;2022-08-19T05:07:16;32.92;;;7.28;;
54259;SDS011;40172;53.022;7.012;2022-08-19T05:09:41;37.97;;;6.90;;
54259;SDS011;40172;53.022;7.012;2022-08-19T05:12:07;36.63;;;7.78;;
54259;SDS011;40172;53.022;7.012;2022-08-19T05:14:33;24.85;;;6.18;;
54259;SDS011;40172;53.022;7.012;2022-08-19T05:17:00;32.10;;;6.47;;
54259;SDS011;40172;53.022;7.012;2022-08-19T05:19:25;17.40;;;5.63;;
54259;SDS011;40172;53.022;7.012;2022-08-19T05:24:54;38.05;;;6.07;;
54259;SDS011;40172;53.022;7.012;2022-08-19T05:27:20;22.48;;;7.03;;
54259;SDS011;40172;53.022;7.012;2022-08-19T05:29:45;44.28;;;8.32;;
54259;SDS011;40172;53.022;7.012;2022-08-19T05:32:11;79.75;;;9.88;;
54259;SDS011;40172;53.022;7.012;2022-08-19T05:34:37;25.08;;;7.25;;
54259;SDS011;40172;53.022;7.012;2022-08-19T05:37:03;29.55;;;8.05;;
54259;SDS011;40172;53.022;7.012;2022-08-19T05:39:31;87.72;;;9.60;;
54259;SDS011;40172;53.022;7.012;2022-08-19T05:42:03;66.25;;;9.75;;
54259;SDS011;40172;53.022;7.012;2022-08-19T05:44:33;63.85;;;9.52;;
54259;SDS011;40172;53.022;7.012;2022-08-19T05:47:00;21.48;;;11.70;;
54259;SDS011;40172;53.022;7.012;2022-08-19T05:49:27;22.85;;;12.40;;
54259;SDS011;40172;53.022;7.012;2022-08-19T05:51:54;19.35;;;11.85;;
54259;SDS011;40172;53.022;7.012;2022-08-19T05:54:20;26.27;;;15.82;;
54259;SDS011;40172;53.022;7.012;2022-08-19T05:56:48;35.20;;;18.08;;
54259;SDS011;40172;53.022;7.012;2022-08-19T05:59:15;32.10;;;18.88;;
54259;SDS011;40172;53.022;7.012;2022-08-19T06:05:23;32.88;;;16.48;;
54259;SDS011;40172;53.022;7.012;2022-08-19T06:07:48;26.17;;;16.02;;
54259;SDS011;40172;53.022;7.012;2022-08-19T06:10:14;23.45;;;15.63;;
54259;SDS011;40172;53.022;7.012;2022-08-19T06:12:39;18.70;;;12.82;;
54259;SDS011;40172;53.022;7.012;2022-08-19T06:15:07;18.50;;;12.57;;
54259;SDS011;40172;53.022;7.012;2022-08-19T06:17:34;14.57;;;11.10;;
54259;SDS011;40172;53.022;7.012;2022-08-19T06:20:01;16.23;;;11.05;;
54259;SDS011;40172;53.022;7.012;2022-08-19T06:22:29;14.15;;;11.07;;
54259;SDS011;40172;53.022;7.012;2022-08-19T06:24:55;19.00;;;13.27;;
54259;SDS011;40172;53.022;7.012;2022-08-19T06:27:21;19.80;;;12.95;;
54259;SDS011;40172;53.022;7.012;2022-08-19T06:29:46;15.68;;;11.73;;
54259;SDS011;40172;53.022;7.012;2022-08-19T06:32:13;18.42;;;13.45;;
54259;SDS011;40172;53.022;7.012;2022-08-19T06:34:41;23.55;;;15.52;;
54259;SDS011;40172;53.022;7.012;2022-08-19T06:40:47;23.85;;;17.35;;
54259;SDS011;40172;53.022;7.012;2022-08-19T06:43:13;22.83;;;18.45;;
54259;SDS011;40172;53.022;7.012;2022-08-19T06:45:40;24.73;;;17.67;;
54259;SDS011;40172;53.022;7.012;2022-08-19T06:48:07;26.73;;;18.27;;
54259;SDS011;40172;53.022;7.012;2022-08-19T06:50:32;27.88;;;19.80;;
54259;SDS011;40172;53.022;7.012;2022-08-19T06:52:58;24.73;;;18.02;;
54259;SDS011;40172;53.022;7.012;2022-08-19T06:55:24;22.40;;;16.00;;
54259;SDS011;40172;53.022;7.012;2022-08-19T06:57:49;21.52;;;17.15;;
54259;SDS011;40172;53.022;7.012;2022-08-19T07:00:18;21.98;;;16.30;;
54259;SDS011;40172;53.022;7.012;2022-08-19T07:02:44;22.25;;;15.68;;
54259;SDS011;40172;53.022;7.012;2022-08-19T07:05:10;21.48;;;15.77;;
54259;SDS011;40172;53.022;7.012;2022-08-19T07:07:35;18.38;;;14.80;;
54259;SDS011;40172;53.022;7.012;2022-08-19T07:10:01;17.98;;;14.38;;
54259;SDS011;40172;53.022;7.012;2022-08-19T07:12:29;22.77;;;15.48;;
54259;SDS011;40172;53.022;7.012;2022-08-19T07:14:57;20.60;;;14.75;;
54259;SDS011;40172;53.022;7.012;2022-08-19T07:17:23;19.50;;;14.77;;
54259;SDS011;40172;53.022;7.012;2022-08-19T07:19:49;15.95;;;13.18;;
54259;SDS011;40172;53.022;7.012;2022-08-19T07:22:15;14.63;;;12.35;;
54259;SDS011;40172;53.022;7.012;2022-08-19T07:24:41;16.77;;;13.10;;
54259;SDS011;40172;53.022;7.012;2022-08-19T07:27:06;19.08;;;12.05;;
54259;SDS011;40172;53.022;7.012;2022-08-19T07:29:34;15.10;;;11.27;;
54259;SDS011;40172;53.022;7.012;2022-08-19T07:32:00;16.70;;;10.85;;
54259;SDS011;40172;53.022;7.012;2022-08-19T07:34:28;14.27;;;10.38;;
54259;SDS011;40172;53.022;7.012;2022-08-19T07:36:55;16.17;;;11.40;;
54259;SDS011;40172;53.022;7.012;2022-08-19T07:39:26;15.40;;;11.10;;
54259;SDS011;40172;53.022;7.012;2022-08-19T07:41:54;14.63;;;11.38;;
54259;SDS011;40172;53.022;7.012;2022-08-19T07:44:21;14.18;;;10.82;;
54259;SDS011;40172;53.022;7.012;2022-08-19T07:46:49;15.00;;;11.55;;
54259;SDS011;40172;53.022;7.012;2022-08-19T07:49:17;14.15;;;10.70;;
54259;SDS011;40172;53.022;7.012;2022-08-19T07:51:49;12.98;;;11.25;;
54259;SDS011;40172;53.022;7.012;2022-08-19T07:54:27;13.40;;;11.25;;
54259;SDS011;40172;53.022;7.012;2022-08-19T07:56:56;14.10;;;11.93;;
54259;SDS011;40172;53.022;7.012;2022-08-19T07:59:23;16.05;;;12.05;;
54259;SDS011;40172;53.022;7.012;2022-08-19T08:01:49;15.98;;;11.95;;
54259;SDS011;40172;53.022;7.012;2022-08-19T08:04:16;17.58;;;12.07;;
54259;SDS011;40172;53.022;7.012;2022-08-19T08:07:01;15.63;;;11.40;;
54259;SDS011;40172;53.022;7.012;2022-08-19T08:09:46;14.40;;;11.82;;
54259;SDS011;40172;53.022;7.012;2022-08-19T08:12:16;14.05;;;11.07;;
54259;SDS011;40172;53.022;7.012;2022-08-19T08:14:50;13.18;;;10.65;;
54259;SDS011;40172;53.022;7.012;2022-08-19T08:17:19;11.57;;;9.93;;
54259;SDS011;40172;53.022;7.012;2022-08-19T08:19:46;13.15;;;9.55;;
54259;SDS011;40172;53.022;7.012;2022-08-19T08:22:14;13.45;;;10.07;;
54259;SDS011;40172;53.022;7.012;2022-08-19T08:25:19;12.95;;;9.25;;
54259;SDS011;40172;53.022;7.012;2022-08-19T08:27:48;13.13;;;8.50;;
54259;SDS011;40172;53.022;7.012;2022-08-19T08:30:25;9.50;;;8.25;;
54259;SDS011;40172;53.022;7.012;2022-08-19T08:32:51;12.43;;;8.50;;
54259;SDS011;40172;53.022;7.012;2022-08-19T08:35:18;10.93;;;8.27;;
54259;SDS011;40172;53.022;7.012;2022-08-19T08:37:47;12.73;;;9.10;;
54259;SDS011;40172;53.022;7.012;2022-08-19T08:40:22;9.20;;;7.80;;
54259;SDS011;40172;53.022;7.012;2022-08-19T08:42:56;10.57;;;8.43;;
54259;SDS011;40172;53.022;7.012;2022-08-19T08:47:53;12.85;;;9.55;;
54259;SDS011;40172;53.022;7.012;2022-08-19T08:50:25;15.98;;;9.82;;
54259;SDS011;40172;53.022;7.012;2022-08-19T08:53:03;14.48;;;9.13;;
54259;SDS011;40172;53.022;7.012;2022-08-19T08:55:30;15.20;;;10.05;;
54259;SDS011;40172;53.022;7.012;2022-08-19T09:00:51;11.82;;;9.00;;
54259;SDS011;40172;53.022;7.012;2022-08-19T09:03:21;13.45;;;9.30;;
54259;SDS011;40172;53.022;7.012;2022-08-19T09:05:56;11.30;;;8.10;;
54259;SDS011;40172;53.022;7.012;2022-08-19T09:10:52;9.48;;;7.88;;
54259;SDS011;40172;53.022;7.012;2022-08-19T09:16:08;12.68;;;7.95;;
54259;SDS011;40172;53.022;7.012;2022-08-19T09:18:38;9.70;;;8.13;;
54259;SDS011;40172;53.022;7.012;2022-08-19T09:21:06;10.13;;;7.80;;
54259;SDS011;40172;53.022;7.012;2022-08-19T09:23:33;12.13;;;8.07;;
54259;SDS011;40172;53.022;7.012;2022-08-19T09:26:00;13.75;;;9.10;;
54259;SDS011;40172;53.022;7.012;2022-08-19T09:28:25;9.07;;;8.18;;
54259;SDS011;40172;53.022;7.012;2022-08-19T09:30:52;14.75;;;7.97;;
54259;SDS011;40172;53.022;7.012;2022-08-19T09:33:18;9.10;;;7.65;;
54259;SDS011;40172;53.022;7.012;2022-08-19T09:35:44;11.05;;;8.13;;
54259;SDS011;40172;53.022;7.012;2022-08-19T09:38:11;10.05;;;7.57;;
54259;SDS011;40172;53.022;7.012;2022-08-19T09:40:36;10.32;;;7.15;;
54259;SDS011;40172;53.022;7.012;2022-08-19T09:43:02;12.32;;;6.43;;
54259;SDS011;40172;53.022;7.012;2022-08-19T09:45:28;10.38;;;7.53;;
54259;SDS011;40172;53.022;7.012;2022-08-19T09:47:54;7.20;;;5.40;;
54259;SDS011;40172;53.022;7.012;2022-08-19T09:50:21;7.45;;;5.45;;
54259;SDS011;40172;53.022;7.012;2022-08-19T09:52:48;7.50;;;6.28;;
54259;SDS011;40172;53.022;7.012;2022-08-19T09:55:14;13.23;;;7.38;;
54259;SDS011;40172;53.022;7.012;2022-08-19T09:57:41;10.85;;;5.82;;
54259;SDS011;40172;53.022;7.012;2022-08-19T10:00:07;10.80;;;6.50;;
54259;SDS011;40172;53.022;7.012;2022-08-19T10:02:34;8.45;;;6.72;;
54259;SDS011;40172;53.022;7.012;2022-08-19T10:05:00;6.60;;;5.68;;
54259;SDS011;40172;53.022;7.012;2022-08-19T10:07:44;9.13;;;6.50;;
54259;SDS011;40172;53.022;7.012;2022-08-19T10:10:10;8.57;;;6.15;;
54259;SDS011;40172;53.022;7.012;2022-08-19T10:12:36;8.73;;;6.63;;
54259;SDS011;40172;53.022;7.012;2022-08-19T10:15:02;7.78;;;6.00;;
54259;SDS011;40172;53.022;7.012;2022-08-19T10:17:29;9.82;;;5.93;;
54259;SDS011;40172;53.022;7.012;2022-08-19T10:19:56;6.70;;;5.38;;
54259;SDS011;40172;53.022;7.012;2022-08-19T10:22:22;8.10;;;5.80;;
54259;SDS011;40172;53.022;7.012;2022-08-19T10:24:48;6.63;;;4.72;;
54259;SDS011;40172;53.022;7.012;2022-08-19T10:27:14;7.28;;;4.18;;
54259;SDS011;40172;53.022;7.012;2022-08-19T10:29:40;7.70;;;4.07;;
54259;SDS011;40172;53.022;7.012;2022-08-19T10:32:07;5.72;;;4.20;;
54259;SDS011;40172;53.022;7.012;2022-08-19T10:34:34;6.90;;;4.30;;
54259;SDS011;40172;53.022;7.012;2022-08-19T10:37:04;4.70;;;3.90;;
54259;SDS011;40172;53.022;7.012;2022-08-19T10:39:31;6.65;;;4.18;;
54259;SDS011;40172;53.022;7.012;2022-08-19T10:41:58;3.70;;;3.15;;
54259;SDS011;40172;53.022;7.012;2022-08-19T10:44:24;4.75;;;2.65;;
54259;SDS011;40172;53.022;7.012;2022-08-19T10:46:50;4.80;;;3.00;;
54259;SDS011;40172;53.022;7.012;2022-08-19T10:49:17;9.05;;;3.13;;
54259;SDS011;40172;53.022;7.012;2022-08-19T10:51:44;4.90;;;3.67;;
54259;SDS011;40172;53.022;7.012;2022-08-19T10:54:28;3.90;;;3.33;;
54259;SDS011;40172;53.022;7.012;2022-08-19T10:57:13;4.13;;;3.22;;
54259;SDS011;40172;53.022;7.012;2022-08-19T10:59:40;4.88;;;3.42;;
54259;SDS011;40172;53.022;7.012;2022-08-19T11:02:07;4.55;;;3.03;;
54259;SDS011;40172;53.022;7.012;2022-08-19T11:04:38;5.00;;;3.60;;
54259;SDS011;40172;53.022;7.012;2022-08-19T11:07:05;7.35;;;3.28;;
54259;SDS011;40172;53.022;7.012;2022-08-19T11:09:36;5.60;;;3.58;;
54259;SDS011;40172;53.022;7.012;2022-08-19T11:12:04;4.72;;;3.88;;
54259;SDS011;40172;53.022;7.012;2022-08-19T11:14:31;4.38;;;3.53;;
54259;SDS011;40172;53.022;7.012;2022-08-19T11:16:58;4.45;;;3.72;;
54259;SDS011;40172;53.022;7.012;2022-08-19T11:19:24;5.13;;;4.13;;
54259;SDS011;40172;53.022;7.012;2022-08-19T11:21:51;5.40;;;3.80;;
54259;SDS011;40172;53.022;7.012;2022-08-19T11:24:23;6.28;;;4.40;;
54259;SDS011;40172;53.022;7.012;2022-08-19T11:26:50;8.38;;;4.00;;
54259;SDS011;40172;53.022;7.012;2022-08-19T11:29:18;6.10;;;4.22;;
54259;SDS011;40172;53.022;7.012;2022-08-19T11:31:46;5.13;;;4.20;;
54259;SDS011;40172;53.022;7.012;2022-08-19T11:34:15;8.80;;;4.22;;
54259;SDS011;40172;53.022;7.012;2022-08-19T11:36:43;9.65;;;4.70;;
54259;SDS011;40172;53.022;7.012;2022-08-19T11:39:11;9.60;;;4.25;;
54259;SDS011;40172;53.022;7.012;2022-08-19T11:41:39;6.57;;;4.43;;
54259;SDS011;40172;53.022;7.012;2022-08-19T11:44:08;6.25;;;4.25;;
54259;SDS011;40172;53.022;7.012;2022-08-19T11:46:35;4.88;;;4.03;;
54259;SDS011;40172;53.022;7.012;2022-08-19T11:49:02;7.88;;;4.00;;
54259;SDS011;40172;53.022;7.012;2022-08-19T11:51:29;4.32;;;3.60;;
54259;SDS011;40172;53.022;7.012;2022-08-19T11:53:56;6.00;;;4.57;;
54259;SDS011;40172;53.022;7.012;2022-08-19T11:56:27;5.85;;;4.18;;
54259;SDS011;40172;53.022;7.012;2022-08-19T11:58:58;6.63;;;4.50;;
54259;SDS011;40172;53.022;7.012;2022-08-19T12:01:26;5.22;;;4.45;;
54259;SDS011;40172;53.022;7.012;2022-08-19T12:03:59;7.10;;;4.40;;
54259;SDS011;40172;53.022;7.012;2022-08-19T12:06:27;5.13;;;4.20;;
54259;SDS011;40172;53.022;7.012;2022-08-19T12:08:58;6.70;;;5.38;;
54259;SDS011;40172;53.022;7.012;2022-08-19T12:11:26;6.95;;;5.22;;
54259;SDS011;40172;53.022;7.012;2022-08-19T12:13:52;5.07;;;4.50;;
54259;SDS011;40172;53.022;7.012;2022-08-19T12:16:33;7.63;;;4.60;;
54259;SDS011;40172;53.022;7.012;2022-08-19T12:19:00;7.20;;;4.28;;
54259;SDS011;40172;53.022;7.012;2022-08-19T12:21:29;7.07;;;5.05;;
54259;SDS011;40172;53.022;7.012;2022-08-19T12:23:57;6.78;;;5.28;;
54259;SDS011;40172;53.022;7.012;2022-08-19T12:26:24;6.20;;;4.95;;
54259;SDS011;40172;53.022;7.012;2022-08-19T12:28:51;7.15;;;5.43;;
54259;SDS011;40172;53.022;7.012;2022-08-19T12:31:19;6.82;;;5.40;;
54259;SDS011;40172;53.022;7.012;2022-08-19T12:33:45;7.75;;;5.25;;
54259;SDS011;40172;53.022;7.012;2022-08-19T12:36:12;7.13;;;5.80;;
54259;SDS011;40172;53.022;7.012;2022-08-19T12:38:41;6.40;;;5.57;;
54259;SDS011;40172;53.022;7.012;2022-08-19T12:41:10;6.95;;;5.60;;
54259;SDS011;40172;53.022;7.012;2022-08-19T12:43:37;5.60;;;5.03;;
54259;SDS011;40172;53.022;7.012;2022-08-19T12:46:04;7.30;;;4.78;;
54259;SDS011;40172;53.022;7.012;2022-08-19T12:48:31;5.00;;;4.50;;
54259;SDS011;40172;53.022;7.012;2022-08-19T12:50:57;7.72;;;5.07;;
54259;SDS011;40172;53.022;7.012;2022-08-19T12:53:23;9.95;;;4.75;;
54259;SDS011;40172;53.022;7.012;2022-08-19T12:55:56;7.65;;;4.80;;
54259;SDS011;40172;53.022;7.012;2022-08-19T12:58:22;7.18;;;5.00;;
54259;SDS011;40172;53.022;7.012;2022-08-19T13:00:48;8.75;;;5.53;;
54259;SDS011;40172;53.022;7.012;2022-08-19T13:03:14;7.05;;;5.40;;
54259;SDS011;40172;53.022;7.012;2022-08-19T13:05:40;9.93;;;6.05;;
54259;SDS011;40172;53.022;7.012;2022-08-19T13:08:06;7.43;;;6.10;;
54259;SDS011;40172;53.022;7.012;2022-08-19T13:10:32;11.18;;;5.82;;
54259;SDS011;40172;53.022;7.012;2022-08-19T13:13:00;7.30;;;6.55;;
54259;SDS011;40172;53.022;7.012;2022-08-19T13:15:33;9.57;;;6.57;;
54259;SDS011;40172;53.022;7.012;2022-08-19T13:18:00;7.95;;;7.03;;
54259;SDS011;40172;53.022;7.012;2022-08-19T13:20:25;6.78;;;6.07;;
54259;SDS011;40172;53.022;7.012;2022-08-19T13:22:51;8.77;;;6.85;;
54259;SDS011;40172;53.022;7.012;2022-08-19T13:25:17;10.93;;;7.22;;
54259;SDS011;40172;53.022;7.012;2022-08-19T13:27:45;9.23;;;7.60;;
54259;SDS011;40172;53.022;7.012;2022-08-19T13:30:12;12.65;;;8.45;;
54259;SDS011;40172;53.022;7.012;2022-08-19T13:32:57;9.60;;;8.32;;
54259;SDS011;40172;53.022;7.012;2022-08-19T13:35:36;10.27;;;7.90;;
54259;SDS011;40172;53.022;7.012;2022-08-19T13:38:03;8.30;;;7.50;;
54259;SDS011;40172;53.022;7.012;2022-08-19T13:40:30;8.23;;;6.85;;
54259;SDS011;40172;53.022;7.012;2022-08-19T13:42:59;8.88;;;7.40;;
54259;SDS011;40172;53.022;7.012;2022-08-19T13:45:26;10.98;;;7.95;;
54259;SDS011;40172;53.022;7.012;2022-08-19T13:47:54;9.50;;;7.97;;
54259;SDS011;40172;53.022;7.012;2022-08-19T13:50:25;9.52;;;8.15;;
54259;SDS011;40172;53.022;7.012;2022-08-19T13:52:54;9.25;;;8.23;;
54259;SDS011;40172;53.022;7.012;2022-08-19T13:55:20;11.27;;;7.78;;
54259;SDS011;40172;53.022;7.012;2022-08-19T13:57:51;8.35;;;7.22;;
54259;SDS011;40172;53.022;7.012;2022-08-19T14:00:18;11.32;;;8.00;;
54259;SDS011;40172;53.022;7.012;2022-08-19T14:02:44;15.52;;;6.05;;
54259;SDS011;40172;53.022;7.012;2022-08-19T14:05:12;6.75;;;5.65;;
54259;SDS011;40172;53.022;7.012;2022-08-19T14:07:40;8.48;;;5.30;;
54259;SDS011;40172;53.022;7.012;2022-08-19T14:10:07;9.68;;;4.80;;
54259;SDS011;40172;53.022;7.012;2022-08-19T14:12:34;5.45;;;4.40;;
54259;SDS011;40172;53.022;7.012;2022-08-19T14:15:00;5.82;;;4.10;;
54259;SDS011;40172;53.022;7.012;2022-08-19T14:17:27;4.43;;;3.50;;
54259;SDS011;40172;53.022;7.012;2022-08-19T14:20:04;8.90;;;3.80;;
54259;SDS011;40172;53.022;7.012;2022-08-19T14:22:34;6.80;;;3.80;;
54259;SDS011;40172;53.022;7.012;2022-08-19T14:25:01;4.22;;;3.60;;
54259;SDS011;40172;53.022;7.012;2022-08-19T14:27:28;5.82;;;3.88;;
54259;SDS011;40172;53.022;7.012;2022-08-19T14:29:54;5.40;;;3.70;;
54259;SDS011;40172;53.022;7.012;2022-08-19T14:32:20;5.82;;;4.00;;
54259;SDS011;40172;53.022;7.012;2022-08-19T14:34:46;6.35;;;3.85;;
54259;SDS011;40172;53.022;7.012;2022-08-19T14:37:12;7.28;;;4.15;;
54259;SDS011;40172;53.022;7.012;2022-08-19T14:39:39;6.07;;;4.82;;
54259;SDS011;40172;53.022;7.012;2022-08-19T14:42:09;5.10;;;4.35;;
54259;SDS011;40172;53.022;7.012;2022-08-19T14:44:35;13.70;;;7.93;;
54259;SDS011;40172;53.022;7.012;2022-08-19T14:47:02;17.05;;;8.27;;
54259;SDS011;40172;53.022;7.012;2022-08-19T14:49:28;19.52;;;9.80;;
54259;SDS011;40172;53.022;7.012;2022-08-19T14:51:53;14.65;;;10.90;;
54259;SDS011;40172;53.022;7.012;2022-08-19T14:54:20;17.77;;;11.10;;
54259;SDS011;40172;53.022;7.012;2022-08-19T14:56:46;20.70;;;12.27;;
54259;SDS011;40172;53.022;7.012;2022-08-19T14:59:13;17.25;;;13.20;;
54259;SDS011;40172;53.022;7.012;2022-08-19T15:01:38;17.92;;;12.43;;
54259;SDS011;40172;53.022;7.012;2022-08-19T15:04:04;20.20;;;12.65;;